createdAt,value
2022-08-04T00:02:02.619Z,98411.75
2022-08-04T00:04:35.611Z,98408.63
2022-08-04T00:07:11.721Z,98405.03
2022-08-04T00:09:53.323Z,98393.25
2022-08-04T00:12:31.275Z,98409.28
2022-08-04T00:15:00.256Z,98398.19
2022-08-04T00:17:32.848Z,98404.31
2022-08-04T00:20:04.989Z,98408.88
2022-08-04T00:22:34.728Z,98391.44
2022-08-04T00:25:05.388Z,98371.00
2022-08-04T00:27:33.278Z,98368.75
2022-08-04T00:30:05.023Z,98400.97
2022-08-04T00:32:34.491Z,98393.59
2022-08-04T00:35:02.194Z,98407.16
2022-08-04T00:37:29.028Z,98402.66
2022-08-04T00:39:57.057Z,98398.94
2022-08-04T00:42:30.774Z,98411.50
2022-08-04T00:45:29.216Z,98405.16
2022-08-04T00:48:33.697Z,98392.38
2022-08-04T00:51:30.311Z,98407.19
2022-08-04T00:54:24.026Z,98372.09
2022-08-04T00:57:33.802Z,98410.84
2022-08-04T01:00:12.049Z,98403.66
2022-08-04T01:03:10.559Z,98408.00
2022-08-04T01:06:00.638Z,98412.56
2022-08-04T01:08:36.473Z,98405.16
2022-08-04T01:11:56.931Z,98405.28
2022-08-04T01:14:52.931Z,98389.94
2022-08-04T01:17:33.691Z,98393.25
2022-08-04T01:20:07.536Z,98384.22
2022-08-04T01:22:34.076Z,98404.19
2022-08-04T01:25:39.091Z,98400.50
2022-08-04T01:28:06.411Z,98401.19
2022-08-04T01:30:34.038Z,98394.31
2022-08-04T01:33:14.453Z,98412.28
2022-08-04T01:36:02.292Z,98389.88
2022-08-04T01:38:34.149Z,98399.50
2022-08-04T01:41:05.914Z,98382.22
2022-08-04T01:43:40.917Z,98387.44
2022-08-04T01:46:11.971Z,98403.34
2022-08-04T01:48:45.539Z,98398.78
2022-08-04T01:51:12.485Z,98375.06
2022-08-04T01:53:42.441Z,98386.72
2022-08-04T01:56:10.995Z,98405.84
2022-08-04T01:58:40.179Z,98385.78
2022-08-04T02:01:09.890Z,98399.31
2022-08-04T02:04:20.162Z,98398.94
2022-08-04T02:06:31.621Z,98401.16
2022-08-04T02:09:27.572Z,98386.69
2022-08-04T02:12:29.579Z,98404.53
2022-08-04T02:15:17.513Z,98404.25
2022-08-04T02:17:44.146Z,98405.06
2022-08-04T02:20:25.838Z,98387.19
2022-08-04T02:23:27.543Z,98413.81
2022-08-04T02:26:22.502Z,98407.88
2022-08-04T02:29:11.135Z,98410.47
2022-08-04T02:31:56.643Z,98412.47
2022-08-04T02:35:08.303Z,98407.88
2022-08-04T02:37:36.265Z,98410.16
2022-08-04T02:40:07.074Z,98406.59
2022-08-04T02:42:34.196Z,98398.41
2022-08-04T02:45:01.723Z,98388.69
2022-08-04T02:48:08.106Z,98406.47
2022-08-04T02:50:28.239Z,98413.63
2022-08-04T02:53:00.624Z,98408.03
2022-08-04T02:55:29.891Z,98395.22
2022-08-04T02:57:59.461Z,98368.22
2022-08-04T03:00:26.927Z,98394.94
2022-08-04T03:03:02.564Z,98413.97
2022-08-04T03:06:13.907Z,98412.69
2022-08-04T03:09:18.469Z,98428.91
2022-08-04T03:12:05.972Z,98425.09
2022-08-04T03:15:15.852Z,98422.09
2022-08-04T03:17:53.519Z,98428.78
2022-08-04T03:21:05.801Z,98425.50
2022-08-04T03:23:57.066Z,98433.81
2022-08-04T03:26:52.486Z,98432.50
2022-08-04T03:29:55.478Z,98434.19
2022-08-04T03:32:52.566Z,98438.50
2022-08-04T03:35:41.143Z,98437.03
2022-08-04T03:38:41.442Z,98419.03
2022-08-04T03:41:50.872Z,98435.09
2022-08-04T03:44:41.579Z,98430.47
2022-08-04T03:47:42.240Z,98435.72
2022-08-04T03:50:41.486Z,98433.44
2022-08-04T03:53:33.138Z,98430.59
2022-08-04T03:56:11.781Z,98442.84
2022-08-04T03:58:41.412Z,98437.22
2022-08-04T04:01:14.067Z,98436.75
2022-08-04T04:03:43.624Z,98432.66
2022-08-04T04:06:19.331Z,98439.72
2022-08-04T04:09:24.714Z,98444.34
2022-08-04T04:12:23.720Z,98440.72
2022-08-04T04:15:05.535Z,98440.44
2022-08-04T04:18:09.652Z,98439.16
2022-08-04T04:21:02.611Z,98420.75
2022-08-04T04:23:44.177Z,98433.56
2022-08-04T04:26:39.120Z,98427.69
2022-08-04T04:29:29.711Z,98416.47
2022-08-04T04:32:14.858Z,98432.69
2022-08-04T04:35:11.440Z,98418.31
2022-08-04T04:37:48.711Z,98432.13
2022-08-04T04:40:32.927Z,98426.88
2022-08-04T04:43:02.791Z,98429.13
2022-08-04T04:45:56.979Z,98438.63
2022-08-04T04:48:41.858Z,98436.38
2022-08-04T04:51:34.053Z,98440.22
2022-08-04T04:54:17.628Z,98427.75
2022-08-04T04:56:48.895Z,98431.72
2022-08-04T04:59:22.185Z,98418.53
2022-08-04T05:02:10.805Z,98444.34
2022-08-04T05:05:22.728Z,98453.63
2022-08-04T05:07:53.233Z,98448.31
2022-08-04T05:10:51.463Z,98445.66
2022-08-04T05:14:34.479Z,98452.44
2022-08-04T05:16:34.544Z,98463.03
2022-08-04T05:19:24.933Z,98446.25
2022-08-04T05:21:59.875Z,98444.50
2022-08-04T05:24:29.352Z,98439.88
2022-08-04T05:27:06.291Z,98448.53
2022-08-04T05:29:37.371Z,98464.16
2022-08-04T05:32:14.360Z,98453.16
2022-08-04T05:34:48.114Z,98468.56
2022-08-04T05:37:20.793Z,98474.50
2022-08-04T05:39:56.010Z,98474.06
2022-08-04T05:42:23.431Z,98456.13
2022-08-04T05:44:52.100Z,98456.56
2022-08-04T05:47:21.630Z,98447.00
2022-08-04T05:49:55.660Z,98479.44
2022-08-04T05:52:31.088Z,98478.00
2022-08-04T05:55:00.577Z,98490.91
2022-08-04T05:57:28.598Z,98482.88
2022-08-04T05:59:57.602Z,98478.94
2022-08-04T06:02:25.736Z,98472.78
2022-08-04T06:04:53.823Z,98473.91
2022-08-04T06:07:20.989Z,98480.75
2022-08-04T06:09:48.417Z,98470.56
2022-08-04T06:12:31.058Z,98478.59
2022-08-04T06:15:00.196Z,98495.03
2022-08-04T06:18:33.146Z,98484.72
2022-08-04T06:20:22.822Z,98457.31
2022-08-04T06:22:54.592Z,98450.41
2022-08-04T06:25:25.924Z,98473.97
2022-08-04T06:27:54.561Z,98471.47
2022-08-04T06:30:28.412Z,98472.78
2022-08-04T06:33:03.638Z,98446.59
2022-08-04T06:35:32.692Z,98445.25
2022-08-04T06:38:01.611Z,98463.03
2022-08-04T06:40:31.736Z,98464.00
2022-08-04T06:43:02.042Z,98461.69
2022-08-04T06:45:29.852Z,98459.91
2022-08-04T06:47:56.835Z,98466.94
2022-08-04T06:51:26.688Z,98447.94
2022-08-04T06:53:11.774Z,98452.97
2022-08-04T06:55:40.988Z,98468.41
2022-08-04T06:58:08.434Z,98491.56
2022-08-04T07:00:38.000Z,98485.06
2022-08-04T07:03:05.838Z,98466.72
2022-08-04T07:05:33.032Z,98478.53
2022-08-04T07:08:01.357Z,98487.13
2022-08-04T07:10:28.740Z,98488.75
2022-08-04T07:12:57.357Z,98484.56
2022-08-04T07:15:25.014Z,98475.19
2022-08-04T07:17:53.315Z,98474.31
2022-08-04T07:20:34.225Z,98457.50
2022-08-04T07:23:07.144Z,98471.22
2022-08-04T07:25:59.509Z,98471.13
2022-08-04T07:28:27.745Z,98477.09
2022-08-04T07:30:56.099Z,98480.72
2022-08-04T07:33:23.347Z,98478.13
2022-08-04T07:36:04.546Z,98449.88
2022-08-04T07:38:37.518Z,98474.38
2022-08-04T07:44:00.397Z,98446.28
2022-08-04T07:46:27.335Z,98444.63
2022-08-04T07:48:59.859Z,98461.53
2022-08-04T07:51:27.218Z,98466.66
2022-08-04T07:53:56.586Z,98459.16
2022-08-04T07:56:23.882Z,98446.41
2022-08-04T07:58:50.733Z,98465.66
2022-08-04T08:01:19.042Z,98437.81
2022-08-04T08:03:47.393Z,98466.69
2022-08-04T08:06:31.376Z,98449.34
2022-08-04T08:09:13.264Z,98451.72
2022-08-04T08:12:38.720Z,98452.19
2022-08-04T08:14:37.205Z,98457.88
2022-08-04T08:17:05.167Z,98438.31
2022-08-04T08:19:33.247Z,98428.41
2022-08-04T08:22:01.397Z,98427.50
2022-08-04T08:24:34.898Z,98442.75
2022-08-04T08:27:04.414Z,98411.16
2022-08-04T08:29:34.061Z,98424.75
2022-08-04T08:32:07.885Z,98458.22
2022-08-04T08:34:36.143Z,98426.69
2022-08-04T08:37:15.121Z,98445.69
2022-08-04T08:39:47.755Z,98420.03
2022-08-04T08:42:17.341Z,98449.31
2022-08-04T08:45:12.718Z,98423.69
2022-08-04T08:48:00.110Z,98447.88
2022-08-04T08:51:07.580Z,98433.88
2022-08-04T08:54:13.240Z,98417.47
2022-08-04T08:56:48.274Z,98420.28
2022-08-04T08:59:53.800Z,98436.72
2022-08-04T09:02:45.467Z,98428.06
2022-08-04T09:05:43.501Z,98414.69
2022-08-04T09:08:21.004Z,98399.19
2022-08-04T09:11:12.790Z,98413.88
2022-08-04T09:13:56.492Z,98412.31
2022-08-04T09:16:49.381Z,98402.94
2022-08-04T09:19:38.935Z,98398.44
2022-08-04T09:22:15.497Z,98410.28
2022-08-04T09:25:02.997Z,98401.38
2022-08-04T09:27:35.923Z,98402.88
2022-08-04T09:30:12.429Z,98411.09
2022-08-04T09:32:41.613Z,98415.56
2022-08-04T09:35:13.330Z,98410.25
2022-08-04T09:38:00.733Z,98409.28
2022-08-04T09:40:53.040Z,98406.41
2022-08-04T09:44:01.201Z,98415.63
2022-08-04T09:47:07.489Z,98412.63
2022-08-04T09:49:41.634Z,98407.66
2022-08-04T09:52:21.326Z,98406.56
2022-08-04T09:55:16.974Z,98397.88
2022-08-04T09:57:55.676Z,98404.72
2022-08-04T10:00:36.357Z,98376.81
2022-08-04T10:03:13.774Z,98408.63
2022-08-04T10:05:48.345Z,98397.63
2022-08-04T10:08:35.236Z,98400.47
2022-08-04T10:11:14.817Z,98402.25
2022-08-04T10:14:02.593Z,98359.03
2022-08-04T10:17:12.384Z,98381.34
2022-08-04T10:19:41.959Z,98388.97
2022-08-04T10:22:27.967Z,98397.84
2022-08-04T10:26:06.178Z,98381.63
2022-08-04T10:28:32.344Z,98390.41
2022-08-04T10:31:04.602Z,98385.84
2022-08-04T10:33:53.242Z,98378.13
2022-08-04T10:36:24.085Z,98381.63
2022-08-04T10:39:00.254Z,98373.63
2022-08-04T10:41:35.932Z,98391.41
2022-08-04T10:44:23.531Z,98386.91
2022-08-04T10:46:55.850Z,98369.47
2022-08-04T10:49:44.996Z,98355.31
2022-08-04T10:52:22.904Z,98382.31
2022-08-04T10:55:18.762Z,98383.47
2022-08-04T10:58:07.551Z,98368.34
2022-08-04T11:00:38.894Z,98366.50
2022-08-04T11:03:27.071Z,98358.94
2022-08-04T11:05:55.807Z,98379.38
2022-08-04T11:08:37.792Z,98357.50
2022-08-04T11:12:00.832Z,98371.38
2022-08-04T11:14:47.646Z,98349.91
2022-08-04T11:17:26.395Z,98359.47
2022-08-04T11:20:31.763Z,98354.41
2022-08-04T11:23:07.456Z,98365.63
2022-08-04T11:25:57.481Z,98337.97
2022-08-04T11:28:32.237Z,98358.25
2022-08-04T11:31:08.204Z,98347.53
2022-08-04T11:33:43.674Z,98351.00
2022-08-04T11:36:20.998Z,98345.75
2022-08-04T11:39:04.856Z,98337.88
2022-08-04T11:41:53.587Z,98339.03
2022-08-04T11:44:31.799Z,98317.84
2022-08-04T11:47:08.822Z,98336.22
2022-08-04T11:49:57.561Z,98328.53
2022-08-04T11:52:27.106Z,98322.94
2022-08-04T11:54:55.470Z,98333.59
2022-08-04T11:57:36.299Z,98295.59
2022-08-04T12:00:12.887Z,98314.28
2022-08-04T12:02:49.701Z,98339.09
2022-08-04T12:05:35.614Z,98301.75
2022-08-04T12:08:09.378Z,98311.38
2022-08-04T12:11:25.170Z,98313.34
2022-08-04T12:14:16.335Z,98291.53
2022-08-04T12:16:52.767Z,98292.13
2022-08-04T12:19:41.975Z,98304.81
2022-08-04T12:22:22.569Z,98302.34
2022-08-04T12:25:00.055Z,98294.81
2022-08-04T12:27:49.397Z,98297.97
2022-08-04T12:30:59.157Z,98290.50
2022-08-04T12:33:10.877Z,98275.38
2022-08-04T12:36:10.304Z,98273.44
2022-08-04T12:38:35.438Z,98275.97
2022-08-04T12:41:05.438Z,98285.38
2022-08-04T12:43:41.106Z,98277.63
2022-08-04T12:46:10.637Z,98286.59
2022-08-04T12:48:39.434Z,98260.44
2022-08-04T12:52:06.866Z,98263.31
2022-08-04T12:53:57.472Z,98255.19
2022-08-04T12:56:28.566Z,98268.00
2022-08-04T12:59:03.363Z,98243.88
2022-08-04T13:02:07.366Z,98235.13
2022-08-04T13:04:21.931Z,98260.00
2022-08-04T13:07:07.862Z,98254.88
2022-08-04T13:09:37.788Z,98262.44
2022-08-04T13:12:12.198Z,98264.84
2022-08-04T13:14:44.550Z,98248.59
2022-08-04T13:17:12.520Z,98256.47
2022-08-04T13:19:45.633Z,98264.69
2022-08-04T13:22:16.408Z,98243.91
2022-08-04T13:25:18.005Z,98248.03
2022-08-04T13:27:43.218Z,98247.38
2022-08-04T13:30:14.745Z,98245.41
2022-08-04T13:32:57.421Z,98252.50
2022-08-04T13:35:55.303Z,98251.19
2022-08-04T13:38:15.315Z,98230.47
2022-08-04T13:40:44.115Z,98252.03
2022-08-04T13:44:15.558Z,98274.88
2022-08-04T13:46:34.127Z,98248.44
2022-08-04T13:51:59.132Z,98246.63
2022-08-04T13:54:47.512Z,98252.38
2022-08-04T13:57:30.295Z,98254.50
2022-08-04T14:00:06.930Z,98256.81
2022-08-04T14:02:45.235Z,98255.84
2022-08-04T14:05:18.799Z,98251.38
2022-08-04T14:07:50.861Z,98249.28
2022-08-04T14:10:18.083Z,98240.38
2022-08-04T14:12:49.557Z,98248.09
2022-08-04T14:16:02.950Z,98244.81
2022-08-04T14:18:32.495Z,98239.06
2022-08-04T14:21:10.744Z,98259.09
2022-08-04T14:23:46.960Z,98257.75
2022-08-04T14:26:34.071Z,98246.25
2022-08-04T14:29:26.742Z,98248.84
2022-08-04T14:32:05.580Z,98240.25
2022-08-04T14:34:41.318Z,98232.34
2022-08-04T14:37:16.547Z,98240.53
2022-08-04T14:40:17.296Z,98250.88
2022-08-04T14:42:54.674Z,98249.88
2022-08-04T14:45:54.961Z,98237.09
2022-08-04T14:48:22.243Z,98251.22
2022-08-04T14:50:50.461Z,98228.81
2022-08-04T14:53:22.562Z,98233.03
2022-08-04T14:55:51.953Z,98255.69
2022-08-04T14:58:35.374Z,98256.19
2022-08-04T15:01:11.844Z,98261.63
2022-08-04T15:03:50.379Z,98254.19
2022-08-04T15:06:27.599Z,98238.19
2022-08-04T15:08:57.117Z,98265.34
2022-08-04T15:11:24.782Z,98259.03
2022-08-04T15:13:56.619Z,98243.38
2022-08-04T15:16:25.870Z,98261.94
2022-08-04T15:18:54.755Z,98247.44
2022-08-04T15:21:26.026Z,98258.50
2022-08-04T15:23:52.860Z,98248.63
2022-08-04T15:26:33.927Z,98257.06
2022-08-04T15:29:16.645Z,98244.72
2022-08-04T15:32:06.779Z,98228.56
2022-08-04T15:34:48.316Z,98240.22
2022-08-04T15:37:29.624Z,98239.84
2022-08-04T15:40:04.442Z,98241.44
2022-08-04T15:42:46.562Z,98239.59
2022-08-04T15:46:43.440Z,98234.13
2022-08-04T15:48:13.910Z,98232.63
2022-08-04T15:51:00.615Z,98237.38
2022-08-04T15:54:03.712Z,98231.91
2022-08-04T15:56:26.537Z,98245.53
2022-08-04T15:58:55.393Z,98237.75
2022-08-04T16:01:22.977Z,98241.59
2022-08-04T16:04:00.973Z,98235.63
2022-08-04T16:06:29.882Z,98243.47
2022-08-04T16:09:05.093Z,98237.50
2022-08-04T16:11:33.365Z,98249.16
2022-08-04T16:14:00.312Z,98250.94
2022-08-04T16:16:31.780Z,98233.13
2022-08-04T16:19:35.499Z,98253.81
2022-08-04T16:22:04.200Z,98242.94
2022-08-04T16:24:39.150Z,98235.31
2022-08-04T16:27:08.377Z,98224.50
2022-08-04T16:29:44.265Z,98246.47
2022-08-04T16:32:13.939Z,98225.66
2022-08-04T16:35:01.480Z,98223.06
2022-08-04T16:37:36.129Z,98253.38
2022-08-04T16:40:34.718Z,98255.34
2022-08-04T16:43:17.829Z,98248.81
2022-08-04T16:45:49.473Z,98253.16
2022-08-04T16:48:18.675Z,98234.75
2022-08-04T16:50:50.655Z,98265.22
2022-08-04T16:53:51.590Z,98225.00
2022-08-04T16:56:09.050Z,98241.47
2022-08-04T16:58:36.914Z,98256.63
2022-08-04T17:01:21.790Z,98242.31
2022-08-04T17:04:05.114Z,98231.69
2022-08-04T17:06:36.377Z,98239.00
2022-08-04T17:09:10.771Z,98261.72
2022-08-04T17:11:37.520Z,98252.78
2022-08-04T17:14:06.123Z,98253.03
2022-08-04T17:16:41.599Z,98263.09
2022-08-04T17:19:19.962Z,98269.03
2022-08-04T17:21:53.419Z,98269.25
2022-08-04T17:24:20.215Z,98256.19
2022-08-04T17:26:54.297Z,98257.44
2022-08-04T17:29:43.379Z,98270.78
2022-08-04T17:32:21.218Z,98247.94
2022-08-04T17:34:54.456Z,98262.47
2022-08-04T17:37:39.950Z,98288.84
2022-08-04T17:40:22.629Z,98280.97
2022-08-04T17:44:01.390Z,98248.84
2022-08-04T17:46:30.255Z,98287.34
2022-08-04T17:49:18.425Z,98288.81
2022-08-04T17:52:04.738Z,98279.81
2022-08-04T17:54:37.147Z,98289.84
2022-08-04T17:57:22.773Z,98291.53
2022-08-04T17:59:56.389Z,98305.47
2022-08-04T18:02:32.919Z,98293.38
2022-08-04T18:05:07.581Z,98293.41
2022-08-04T18:08:41.500Z,98287.97
2022-08-04T18:10:55.401Z,98304.53
2022-08-04T18:13:27.974Z,98307.06
2022-08-04T18:16:03.222Z,98295.75
2022-08-04T18:18:30.387Z,98314.81
2022-08-04T18:20:59.891Z,98301.31
2022-08-04T18:23:31.933Z,98308.25
2022-08-04T18:25:59.603Z,98298.56
2022-08-04T18:28:33.331Z,98317.38
2022-08-04T18:31:01.505Z,98297.50
2022-08-04T18:33:40.205Z,98324.78
2022-08-04T18:36:33.182Z,98314.00
2022-08-04T18:39:13.530Z,98315.13
2022-08-04T18:42:02.408Z,98309.56
2022-08-04T18:44:32.234Z,98327.00
2022-08-04T18:47:19.502Z,98345.47
2022-08-04T18:50:59.521Z,98327.28
2022-08-04T18:52:34.293Z,98340.00
2022-08-04T18:55:01.638Z,98319.28
2022-08-04T18:57:59.704Z,98321.50
2022-08-04T19:00:16.872Z,98332.28
2022-08-04T19:02:47.528Z,98334.50
2022-08-04T19:05:17.465Z,98335.59
2022-08-04T19:08:02.113Z,98330.66
2022-08-04T19:10:29.340Z,98350.81
2022-08-04T19:12:56.511Z,98335.34
2022-08-04T19:15:34.608Z,98364.88
2022-08-04T19:18:02.303Z,98343.91
2022-08-04T19:20:33.751Z,98380.91
2022-08-04T19:24:28.951Z,98364.38
2022-08-04T19:26:01.912Z,98395.28
2022-08-04T19:28:35.056Z,98390.03
2022-08-04T19:31:07.458Z,98391.13
2022-08-04T19:33:59.612Z,98400.25
2022-08-04T19:36:27.572Z,98394.72
2022-08-04T19:38:55.814Z,98408.03
2022-08-04T19:41:22.781Z,98395.03
2022-08-04T19:43:53.415Z,98386.47
2022-08-04T19:46:21.562Z,98397.28
2022-08-04T19:48:59.745Z,98386.19
2022-08-04T19:51:29.170Z,98396.97
2022-08-04T19:56:48.725Z,98399.19
2022-08-04T19:59:16.605Z,98414.66
2022-08-04T20:04:31.336Z,98393.69
2022-08-04T20:06:58.229Z,98395.34
2022-08-04T20:09:27.058Z,98402.78
2022-08-04T20:11:55.733Z,98404.19
2022-08-04T20:14:31.096Z,98402.53
2022-08-04T20:17:00.542Z,98411.09
2022-08-04T20:19:27.684Z,98401.13
2022-08-04T20:21:57.655Z,98409.41
2022-08-04T20:24:37.684Z,98394.78
2022-08-04T20:27:14.610Z,98404.75
2022-08-04T20:29:48.662Z,98408.06
2022-08-04T20:32:22.301Z,98377.94
2022-08-04T20:34:51.377Z,98415.78
2022-08-04T20:37:20.683Z,98413.03
2022-08-04T20:39:54.871Z,98380.44
2022-08-04T20:42:33.719Z,98419.38
2022-08-04T20:45:01.316Z,98389.50
2022-08-04T20:47:33.673Z,98401.97
2022-08-04T20:50:04.521Z,98417.97
2022-08-04T20:52:33.172Z,98386.19
2022-08-04T20:55:04.806Z,98421.25
2022-08-04T20:57:47.452Z,98423.75
2022-08-04T21:00:17.683Z,98413.25
2022-08-04T21:02:56.241Z,98413.78
2022-08-04T21:05:23.572Z,98400.50
2022-08-04T21:07:56.732Z,98405.75
2022-08-04T21:10:27.408Z,98414.59
2022-08-04T21:12:54.956Z,98417.91
2022-08-04T21:15:25.634Z,98413.72
2022-08-04T21:17:59.320Z,98428.13
2022-08-04T21:20:31.627Z,98421.72
2022-08-04T21:23:02.228Z,98421.75
2022-08-04T21:25:30.694Z,98419.28
2022-08-04T21:27:58.725Z,98420.34
2022-08-04T21:30:28.657Z,98412.34
2022-08-04T21:32:55.719Z,98414.78
2022-08-04T21:35:37.729Z,98383.59
2022-08-04T21:38:17.256Z,98407.09
2022-08-04T21:41:01.403Z,98397.91
2022-08-04T21:43:29.932Z,98397.38
2022-08-04T21:46:09.515Z,98407.88
2022-08-04T21:48:36.242Z,98405.88
2022-08-04T21:52:00.043Z,98421.13
2022-08-04T21:54:17.065Z,98412.25
2022-08-04T21:56:49.233Z,98420.28
2022-08-04T21:59:28.407Z,98421.31
2022-08-04T22:01:57.973Z,98418.84
2022-08-04T22:04:27.348Z,98414.13
2022-08-04T22:06:54.629Z,98418.56
2022-08-04T22:09:21.876Z,98416.06
2022-08-04T22:11:51.563Z,98375.72
2022-08-04T22:14:27.219Z,98397.25
2022-08-04T22:16:56.613Z,98406.06
2022-08-04T22:19:40.993Z,98405.78
2022-08-04T22:22:12.653Z,98419.84
2022-08-04T22:24:51.883Z,98387.25
2022-08-04T22:27:36.971Z,98417.06
2022-08-04T22:30:16.906Z,98406.88
2022-08-04T22:32:47.051Z,98409.63
2022-08-04T22:35:35.654Z,98417.88
2022-08-04T22:38:06.121Z,98385.03
2022-08-04T22:40:34.619Z,98401.03
2022-08-04T22:43:03.125Z,98399.91
2022-08-04T22:45:43.327Z,98381.63
2022-08-04T22:48:11.647Z,98391.59
2022-08-04T22:50:38.424Z,98373.91
2022-08-04T22:53:06.601Z,98382.47
2022-08-04T22:56:07.433Z,98399.06
2022-08-04T22:58:20.225Z,98384.63
2022-08-04T23:00:52.916Z,98375.47
2022-08-04T23:03:36.977Z,98381.50
2022-08-04T23:06:10.674Z,98378.47
2022-08-04T23:08:38.865Z,98381.75
2022-08-04T23:11:10.738Z,98375.63
2022-08-04T23:13:37.889Z,98377.00
2022-08-04T23:16:06.531Z,98387.22
2022-08-04T23:18:37.183Z,98372.03
2022-08-04T23:21:10.125Z,98377.53
2022-08-04T23:23:45.213Z,98373.06
2022-08-04T23:26:21.877Z,98384.06
2022-08-04T23:28:55.882Z,98392.63
2022-08-04T23:31:22.964Z,98356.44
2022-08-04T23:33:51.046Z,98383.78
2022-08-04T23:36:19.142Z,98392.88
2022-08-04T23:38:59.667Z,98375.47
2022-08-04T23:41:54.790Z,98393.66
2022-08-04T23:44:23.476Z,98388.97
2022-08-04T23:47:00.759Z,98374.88
2022-08-04T23:49:40.743Z,98385.59
2022-08-04T23:52:15.747Z,98373.38
2022-08-04T23:54:54.693Z,98389.13
2022-08-04T23:57:22.135Z,98367.44
